sensor_id;sensor_type;location;lat;lon;timestamp;temperature;humidity
23591;DHT22;11973;52.098;7.582;2022-12-07T00:01:22;5.60;99.90
23591;DHT22;11973;52.098;7.582;2022-12-07T00:03:51;5.60;99.90
23591;DHT22;11973;52.098;7.582;2022-12-07T00:06:17;5.60;99.90
23591;DHT22;11973;52.098;7.582;2022-12-07T00:08:43;5.60;99.90
23591;DHT22;11973;52.098;7.582;2022-12-07T00:11:16;5.60;99.90
23591;DHT22;11973;52.098;7.582;2022-12-07T00:13:43;5.60;99.90
23591;DHT22;11973;52.098;7.582;2022-12-07T00:16:10;5.60;99.90
23591;DHT22;11973;52.098;7.582;2022-12-07T00:18:37;5.60;99.90
23591;DHT22;11973;52.098;7.582;2022-12-07T00:21:05;5.50;99.90
23591;DHT22;11973;52.098;7.582;2022-12-07T00:23:31;5.50;99.90
23591;DHT22;11973;52.098;7.582;2022-12-07T00:26:03;5.50;99.90
23591;DHT22;11973;52.098;7.582;2022-12-07T00:28:29;5.50;99.90
23591;DHT22;11973;52.098;7.582;2022-12-07T00:31:07;5.50;99.90
23591;DHT22;11973;52.098;7.582;2022-12-07T00:33:34;5.50;99.90
23591;DHT22;11973;52.098;7.582;2022-12-07T00:36:02;5.40;99.90
23591;DHT22;11973;52.098;7.582;2022-12-07T00:38:29;5.40;99.90
23591;DHT22;11973;52.098;7.582;2022-12-07T00:41:02;5.40;99.90
23591;DHT22;11973;52.098;7.582;2022-12-07T00:43:28;5.40;99.90
23591;DHT22;11973;52.098;7.582;2022-12-07T00:45:54;5.30;99.90
23591;DHT22;11973;52.098;7.582;2022-12-07T00:48:21;5.30;99.90
23591;DHT22;11973;52.098;7.582;2022-12-07T00:50:47;5.40;99.90
23591;DHT22;11973;52.098;7.582;2022-12-07T00:53:13;5.20;99.90
23591;DHT22;11973;52.098;7.582;2022-12-07T00:55:40;5.20;99.90
23591;DHT22;11973;52.098;7.582;2022-12-07T00:58:06;5.20;99.90
23591;DHT22;11973;52.098;7.582;2022-12-07T01:00:32;5.20;99.90
23591;DHT22;11973;52.098;7.582;2022-12-07T01:02:59;5.20;99.90
23591;DHT22;11973;52.098;7.582;2022-12-07T01:05:25;5.20;99.90
23591;DHT22;11973;52.098;7.582;2022-12-07T01:07:50;5.10;99.90
23591;DHT22;11973;52.098;7.582;2022-12-07T01:10:16;5.10;99.90
23591;DHT22;11973;52.098;7.582;2022-12-07T01:12:42;5.20;99.90
23591;DHT22;11973;52.098;7.582;2022-12-07T01:15:08;5.00;99.90
23591;DHT22;11973;52.098;7.582;2022-12-07T01:17:34;5.00;99.90
23591;DHT22;11973;52.098;7.582;2022-12-07T01:19:59;5.00;99.90
23591;DHT22;11973;52.098;7.582;2022-12-07T01:22:25;5.00;99.90
23591;DHT22;11973;52.098;7.582;2022-12-07T01:24:51;4.90;99.90
23591;DHT22;11973;52.098;7.582;2022-12-07T01:27:17;4.90;99.90
23591;DHT22;11973;52.098;7.582;2022-12-07T01:29:43;4.90;99.90
23591;DHT22;11973;52.098;7.582;2022-12-07T01:32:09;4.80;99.90
23591;DHT22;11973;52.098;7.582;2022-12-07T01:34:34;4.80;99.90
23591;DHT22;11973;52.098;7.582;2022-12-07T01:37:00;4.80;99.90
23591;DHT22;11973;52.098;7.582;2022-12-07T01:39:26;4.70;99.90
23591;DHT22;11973;52.098;7.582;2022-12-07T01:41:52;4.60;99.90
23591;DHT22;11973;52.098;7.582;2022-12-07T01:46:55;4.50;99.90
23591;DHT22;11973;52.098;7.582;2022-12-07T01:49:44;4.40;99.90
23591;DHT22;11973;52.098;7.582;2022-12-07T01:52:27;4.40;99.90
23591;DHT22;11973;52.098;7.582;2022-12-07T01:54:57;4.30;99.90
23591;DHT22;11973;52.098;7.582;2022-12-07T01:57:25;4.50;99.90
23591;DHT22;11973;52.098;7.582;2022-12-07T01:59:52;4.30;99.90
23591;DHT22;11973;52.098;7.582;2022-12-07T02:02:29;4.20;99.90
23591;DHT22;11973;52.098;7.582;2022-12-07T02:04:59;4.20;99.90
23591;DHT22;11973;52.098;7.582;2022-12-07T02:07:27;4.10;99.90
23591;DHT22;11973;52.098;7.582;2022-12-07T02:09:53;4.10;99.90
23591;DHT22;11973;52.098;7.582;2022-12-07T02:12:19;4.00;99.90
23591;DHT22;11973;52.098;7.582;2022-12-07T02:14:46;4.00;99.90
23591;DHT22;11973;52.098;7.582;2022-12-07T02:17:23;4.00;99.90
23591;DHT22;11973;52.098;7.582;2022-12-07T02:28:49;3.90;99.90
23591;DHT22;11973;52.098;7.582;2022-12-07T02:31:20;3.80;99.90
23591;DHT22;11973;52.098;7.582;2022-12-07T02:34:09;3.80;99.90
23591;DHT22;11973;52.098;7.582;2022-12-07T02:36:53;3.70;99.90
23591;DHT22;11973;52.098;7.582;2022-12-07T02:39:44;3.70;99.90
23591;DHT22;11973;52.098;7.582;2022-12-07T02:42:17;3.70;99.90
23591;DHT22;11973;52.098;7.582;2022-12-07T02:44:44;3.70;99.90
23591;DHT22;11973;52.098;7.582;2022-12-07T02:47:13;3.60;99.90
23591;DHT22;11973;52.098;7.582;2022-12-07T02:49:40;3.60;99.90
23591;DHT22;11973;52.098;7.582;2022-12-07T02:52:06;3.50;99.90
23591;DHT22;11973;52.098;7.582;2022-12-07T02:54:31;3.50;99.90
23591;DHT22;11973;52.098;7.582;2022-12-07T02:57:15;3.50;99.90
23591;DHT22;11973;52.098;7.582;2022-12-07T03:08:06;3.40;99.90
23591;DHT22;11973;52.098;7.582;2022-12-07T03:11:00;3.40;99.90
23591;DHT22;11973;52.098;7.582;2022-12-07T03:13:50;3.30;99.90
23591;DHT22;11973;52.098;7.582;2022-12-07T03:19:21;3.30;99.90
23591;DHT22;11973;52.098;7.582;2022-12-07T03:22:00;3.30;99.90
23591;DHT22;11973;52.098;7.582;2022-12-07T03:24:32;3.20;99.90
23591;DHT22;11973;52.098;7.582;2022-12-07T03:27:06;3.20;99.90
23591;DHT22;11973;52.098;7.582;2022-12-07T03:29:50;3.20;99.90
23591;DHT22;11973;52.098;7.582;2022-12-07T03:32:25;3.20;99.90
23591;DHT22;11973;52.098;7.582;2022-12-07T03:35:01;3.20;99.90
23591;DHT22;11973;52.098;7.582;2022-12-07T03:37:53;3.20;99.90
23591;DHT22;11973;52.098;7.582;2022-12-07T03:40:26;3.20;99.90
23591;DHT22;11973;52.098;7.582;2022-12-07T03:42:54;3.20;99.90
23591;DHT22;11973;52.098;7.582;2022-12-07T03:45:26;3.20;99.90
23591;DHT22;11973;52.098;7.582;2022-12-07T03:48:08;3.20;99.90
23591;DHT22;11973;52.098;7.582;2022-12-07T03:53:14;3.20;99.90
23591;DHT22;11973;52.098;7.582;2022-12-07T03:55:43;3.30;99.90
23591;DHT22;11973;52.098;7.582;2022-12-07T03:58:12;3.20;99.90
23591;DHT22;11973;52.098;7.582;2022-12-07T04:00:40;3.20;99.90
23591;DHT22;11973;52.098;7.582;2022-12-07T04:03:06;3.30;99.90
23591;DHT22;11973;52.098;7.582;2022-12-07T04:05:32;3.20;99.90
23591;DHT22;11973;52.098;7.582;2022-12-07T04:07:58;3.20;99.90
23591;DHT22;11973;52.098;7.582;2022-12-07T04:10:23;3.20;99.90
23591;DHT22;11973;52.098;7.582;2022-12-07T04:12:49;3.30;99.90
23591;DHT22;11973;52.098;7.582;2022-12-07T04:15:15;3.20;99.90
23591;DHT22;11973;52.098;7.582;2022-12-07T04:17:40;3.30;99.90
23591;DHT22;11973;52.098;7.582;2022-12-07T04:20:07;3.30;99.90
23591;DHT22;11973;52.098;7.582;2022-12-07T04:22:33;3.30;99.90
23591;DHT22;11973;52.098;7.582;2022-12-07T04:24:59;3.30;99.90
23591;DHT22;11973;52.098;7.582;2022-12-07T04:27:24;3.30;99.90
23591;DHT22;11973;52.098;7.582;2022-12-07T04:29:50;3.40;99.90
23591;DHT22;11973;52.098;7.582;2022-12-07T04:32:16;3.40;99.90
23591;DHT22;11973;52.098;7.582;2022-12-07T04:34:42;3.40;99.90
23591;DHT22;11973;52.098;7.582;2022-12-07T04:37:07;3.40;99.90
23591;DHT22;11973;52.098;7.582;2022-12-07T04:39:33;3.40;99.90
23591;DHT22;11973;52.098;7.582;2022-12-07T04:42:00;3.40;99.90
23591;DHT22;11973;52.098;7.582;2022-12-07T04:44:27;3.40;99.90
23591;DHT22;11973;52.098;7.582;2022-12-07T04:46:53;3.40;99.90
23591;DHT22;11973;52.098;7.582;2022-12-07T04:49:20;3.40;99.90
23591;DHT22;11973;52.098;7.582;2022-12-07T04:51:46;3.60;99.90
23591;DHT22;11973;52.098;7.582;2022-12-07T04:54:13;3.50;99.90
23591;DHT22;11973;52.098;7.582;2022-12-07T04:56:39;3.50;99.90
23591;DHT22;11973;52.098;7.582;2022-12-07T04:59:05;3.60;99.90
23591;DHT22;11973;52.098;7.582;2022-12-07T05:01:31;3.60;99.90
23591;DHT22;11973;52.098;7.582;2022-12-07T05:03:57;3.60;99.90
23591;DHT22;11973;52.098;7.582;2022-12-07T05:06:24;3.60;99.90
23591;DHT22;11973;52.098;7.582;2022-12-07T05:08:49;3.60;99.90
23591;DHT22;11973;52.098;7.582;2022-12-07T05:11:15;3.60;99.90
23591;DHT22;11973;52.098;7.582;2022-12-07T05:14:01;3.60;99.90
23591;DHT22;11973;52.098;7.582;2022-12-07T06:15:50;3.60;99.90
23591;DHT22;11973;52.098;7.582;2022-12-07T06:18:15;3.60;99.90
23591;DHT22;11973;52.098;7.582;2022-12-07T06:20:41;3.60;99.90
23591;DHT22;11973;52.098;7.582;2022-12-07T06:23:07;3.50;99.90
23591;DHT22;11973;52.098;7.582;2022-12-07T06:25:33;3.50;99.90
23591;DHT22;11973;52.098;7.582;2022-12-07T06:27:58;3.50;99.90
23591;DHT22;11973;52.098;7.582;2022-12-07T06:30:24;3.50;99.90
23591;DHT22;11973;52.098;7.582;2022-12-07T06:32:50;3.50;99.90
23591;DHT22;11973;52.098;7.582;2022-12-07T06:35:15;3.40;99.90
23591;DHT22;11973;52.098;7.582;2022-12-07T06:37:41;3.40;99.90
23591;DHT22;11973;52.098;7.582;2022-12-07T06:40:07;3.50;99.90
23591;DHT22;11973;52.098;7.582;2022-12-07T06:42:33;3.30;99.90
23591;DHT22;11973;52.098;7.582;2022-12-07T06:44:59;3.30;99.90
23591;DHT22;11973;52.098;7.582;2022-12-07T06:47:24;3.30;99.90
23591;DHT22;11973;52.098;7.582;2022-12-07T06:49:50;3.20;99.90
23591;DHT22;11973;52.098;7.582;2022-12-07T06:52:16;3.20;99.90
23591;DHT22;11973;52.098;7.582;2022-12-07T06:54:41;3.20;99.90
23591;DHT22;11973;52.098;7.582;2022-12-07T06:57:07;3.10;99.90
23591;DHT22;11973;52.098;7.582;2022-12-07T06:59:32;3.10;99.90
23591;DHT22;11973;52.098;7.582;2022-12-07T07:01:58;3.10;99.90
23591;DHT22;11973;52.098;7.582;2022-12-07T07:04:24;3.00;99.90
23591;DHT22;11973;52.098;7.582;2022-12-07T07:06:50;3.00;99.90
23591;DHT22;11973;52.098;7.582;2022-12-07T07:09:16;3.00;99.90
23591;DHT22;11973;52.098;7.582;2022-12-07T07:11:41;3.00;99.90
23591;DHT22;11973;52.098;7.582;2022-12-07T07:14:07;3.10;99.90
23591;DHT22;11973;52.098;7.582;2022-12-07T07:16:33;3.10;99.90
23591;DHT22;11973;52.098;7.582;2022-12-07T07:18:58;3.10;99.90
23591;DHT22;11973;52.098;7.582;2022-12-07T07:21:24;3.10;99.90
23591;DHT22;11973;52.098;7.582;2022-12-07T07:23:50;3.10;99.90
23591;DHT22;11973;52.098;7.582;2022-12-07T07:26:15;3.20;99.90
23591;DHT22;11973;52.098;7.582;2022-12-07T07:28:41;3.20;99.90
23591;DHT22;11973;52.098;7.582;2022-12-07T07:31:06;3.20;99.90
23591;DHT22;11973;52.098;7.582;2022-12-07T07:33:32;3.20;99.90
23591;DHT22;11973;52.098;7.582;2022-12-07T07:35:58;3.30;99.90
23591;DHT22;11973;52.098;7.582;2022-12-07T07:38:24;3.30;99.90
23591;DHT22;11973;52.098;7.582;2022-12-07T07:40:49;3.30;99.90
23591;DHT22;11973;52.098;7.582;2022-12-07T07:43:15;3.30;99.90
23591;DHT22;11973;52.098;7.582;2022-12-07T07:45:40;3.30;99.90
23591;DHT22;11973;52.098;7.582;2022-12-07T07:48:06;3.40;99.90
23591;DHT22;11973;52.098;7.582;2022-12-07T07:50:32;3.50;99.90
23591;DHT22;11973;52.098;7.582;2022-12-07T07:52:58;3.40;99.90
23591;DHT22;11973;52.098;7.582;2022-12-07T07:55:24;3.50;99.90
23591;DHT22;11973;52.098;7.582;2022-12-07T07:57:49;3.50;99.90
23591;DHT22;11973;52.098;7.582;2022-12-07T08:00:16;3.50;99.90
23591;DHT22;11973;52.098;7.582;2022-12-07T08:02:42;3.50;99.90
23591;DHT22;11973;52.098;7.582;2022-12-07T08:05:09;3.50;99.90
23591;DHT22;11973;52.098;7.582;2022-12-07T08:07:35;3.50;99.90
23591;DHT22;11973;52.098;7.582;2022-12-07T08:10:02;3.40;99.90
23591;DHT22;11973;52.098;7.582;2022-12-07T08:12:27;3.40;99.90
23591;DHT22;11973;52.098;7.582;2022-12-07T08:14:53;3.40;99.90
23591;DHT22;11973;52.098;7.582;2022-12-07T08:17:19;3.30;99.90
23591;DHT22;11973;52.098;7.582;2022-12-07T08:19:44;3.30;99.90
23591;DHT22;11973;52.098;7.582;2022-12-07T08:22:10;3.30;99.90
23591;DHT22;11973;52.098;7.582;2022-12-07T08:24:36;3.30;99.90
23591;DHT22;11973;52.098;7.582;2022-12-07T08:27:02;3.20;99.90
23591;DHT22;11973;52.098;7.582;2022-12-07T08:29:28;3.40;99.90
23591;DHT22;11973;52.098;7.582;2022-12-07T08:31:54;3.30;99.90
23591;DHT22;11973;52.098;7.582;2022-12-07T08:34:20;3.30;99.90
23591;DHT22;11973;52.098;7.582;2022-12-07T08:36:46;3.40;99.90
23591;DHT22;11973;52.098;7.582;2022-12-07T08:39:11;3.40;99.90
23591;DHT22;11973;52.098;7.582;2022-12-07T08:41:37;3.50;99.90
23591;DHT22;11973;52.098;7.582;2022-12-07T08:44:03;3.60;99.90
23591;DHT22;11973;52.098;7.582;2022-12-07T08:46:38;3.70;99.90
23591;DHT22;11973;52.098;7.582;2022-12-07T08:49:15;3.70;99.90
23591;DHT22;11973;52.098;7.582;2022-12-07T08:51:41;3.80;99.90
23591;DHT22;11973;52.098;7.582;2022-12-07T08:54:12;3.90;99.90
23591;DHT22;11973;52.098;7.582;2022-12-07T08:56:40;3.90;99.90
23591;DHT22;11973;52.098;7.582;2022-12-07T08:59:06;4.00;99.90
23591;DHT22;11973;52.098;7.582;2022-12-07T09:01:32;4.00;99.90
23591;DHT22;11973;52.098;7.582;2022-12-07T09:03:58;4.10;99.90
23591;DHT22;11973;52.098;7.582;2022-12-07T09:06:24;4.10;99.90
23591;DHT22;11973;52.098;7.582;2022-12-07T09:08:53;4.20;99.90
23591;DHT22;11973;52.098;7.582;2022-12-07T09:11:20;4.20;99.90
23591;DHT22;11973;52.098;7.582;2022-12-07T09:13:45;4.30;99.90
23591;DHT22;11973;52.098;7.582;2022-12-07T09:16:11;4.30;99.90
23591;DHT22;11973;52.098;7.582;2022-12-07T09:18:37;4.30;99.90
23591;DHT22;11973;52.098;7.582;2022-12-07T09:21:04;4.40;99.90
23591;DHT22;11973;52.098;7.582;2022-12-07T09:23:29;4.40;99.90
23591;DHT22;11973;52.098;7.582;2022-12-07T09:26:02;4.50;99.90
23591;DHT22;11973;52.098;7.582;2022-12-07T09:28:28;4.50;99.90
23591;DHT22;11973;52.098;7.582;2022-12-07T09:30:53;4.50;99.90
23591;DHT22;11973;52.098;7.582;2022-12-07T09:33:19;4.50;99.90
23591;DHT22;11973;52.098;7.582;2022-12-07T09:35:46;4.60;99.90
23591;DHT22;11973;52.098;7.582;2022-12-07T09:38:13;4.60;99.90
23591;DHT22;11973;52.098;7.582;2022-12-07T09:40:39;4.60;99.90
23591;DHT22;11973;52.098;7.582;2022-12-07T09:43:08;4.60;99.90
23591;DHT22;11973;52.098;7.582;2022-12-07T09:45:37;4.70;99.90
23591;DHT22;11973;52.098;7.582;2022-12-07T09:48:04;4.70;99.90
23591;DHT22;11973;52.098;7.582;2022-12-07T09:50:30;4.80;99.90
23591;DHT22;11973;52.098;7.582;2022-12-07T09:53:08;4.90;99.90
23591;DHT22;11973;52.098;7.582;2022-12-07T09:55:36;5.00;99.90
23591;DHT22;11973;52.098;7.582;2022-12-07T09:58:03;5.10;99.90
23591;DHT22;11973;52.098;7.582;2022-12-07T10:00:29;5.20;99.90
23591;DHT22;11973;52.098;7.582;2022-12-07T10:02:57;5.20;99.90
23591;DHT22;11973;52.098;7.582;2022-12-07T10:05:35;5.30;99.90
23591;DHT22;11973;52.098;7.582;2022-12-07T10:08:02;5.40;99.90
23591;DHT22;11973;52.098;7.582;2022-12-07T10:10:33;5.50;99.90
23591;DHT22;11973;52.098;7.582;2022-12-07T10:13:08;5.40;99.90
23591;DHT22;11973;52.098;7.582;2022-12-07T10:15:54;5.40;99.90
23591;DHT22;11973;52.098;7.582;2022-12-07T10:21:23;5.40;99.90
23591;DHT22;11973;52.098;7.582;2022-12-07T10:24:13;5.40;99.90
23591;DHT22;11973;52.098;7.582;2022-12-07T10:31:57;5.40;99.90
23591;DHT22;11973;52.098;7.582;2022-12-07T10:34:29;5.50;99.90
23591;DHT22;11973;52.098;7.582;2022-12-07T10:39:48;5.50;99.90
23591;DHT22;11973;52.098;7.582;2022-12-07T10:42:28;5.50;99.90
23591;DHT22;11973;52.098;7.582;2022-12-07T10:51:06;5.60;99.90
23591;DHT22;11973;52.098;7.582;2022-12-07T11:01:50;5.70;99.90
23591;DHT22;11973;52.098;7.582;2022-12-07T11:04:23;5.80;99.90
23591;DHT22;11973;52.098;7.582;2022-12-07T11:07:14;5.80;99.90
23591;DHT22;11973;52.098;7.582;2022-12-07T11:15:17;5.90;99.90
23591;DHT22;11973;52.098;7.582;2022-12-07T11:18:00;5.90;99.90
23591;DHT22;11973;52.098;7.582;2022-12-07T11:23:16;5.90;99.90
23591;DHT22;11973;52.098;7.582;2022-12-07T11:34:03;5.80;99.90
23591;DHT22;11973;52.098;7.582;2022-12-07T11:36:38;5.90;99.90
23591;DHT22;11973;52.098;7.582;2022-12-07T11:41:45;6.10;99.90
23591;DHT22;11973;52.098;7.582;2022-12-07T11:47:02;6.30;99.90
23591;DHT22;11973;52.098;7.582;2022-12-07T11:49:44;6.40;99.90
23591;DHT22;11973;52.098;7.582;2022-12-07T11:52:27;6.40;99.90
23591;DHT22;11973;52.098;7.582;2022-12-07T11:54:54;6.30;99.90
23591;DHT22;11973;52.098;7.582;2022-12-07T11:57:42;6.30;99.90
23591;DHT22;11973;52.098;7.582;2022-12-07T12:00:14;6.30;99.90
23591;DHT22;11973;52.098;7.582;2022-12-07T12:02:53;6.30;99.90
23591;DHT22;11973;52.098;7.582;2022-12-07T12:05:23;6.30;99.90
23591;DHT22;11973;52.098;7.582;2022-12-07T12:07:59;6.30;99.90
23591;DHT22;11973;52.098;7.582;2022-12-07T12:10:29;6.40;99.90
23591;DHT22;11973;52.098;7.582;2022-12-07T12:21:35;6.60;99.90
23591;DHT22;11973;52.098;7.582;2022-12-07T12:24:15;6.60;99.90
23591;DHT22;11973;52.098;7.582;2022-12-07T12:26:51;6.70;99.90
23591;DHT22;11973;52.098;7.582;2022-12-07T12:35:18;6.80;99.90
23591;DHT22;11973;52.098;7.582;2022-12-07T12:37:46;6.80;99.90
23591;DHT22;11973;52.098;7.582;2022-12-07T12:42:50;6.90;99.90
23591;DHT22;11973;52.098;7.582;2022-12-07T12:45:30;6.90;99.90
23591;DHT22;11973;52.098;7.582;2022-12-07T12:50:30;6.80;99.90
23591;DHT22;11973;52.098;7.582;2022-12-07T13:01:30;6.70;99.90
23591;DHT22;11973;52.098;7.582;2022-12-07T13:03:34;6.60;99.90
23591;DHT22;11973;52.098;7.582;2022-12-07T13:08:55;6.60;99.90
23591;DHT22;11973;52.098;7.582;2022-12-07T13:11:33;6.60;99.90
23591;DHT22;11973;52.098;7.582;2022-12-07T13:17:03;6.70;99.90
23591;DHT22;11973;52.098;7.582;2022-12-07T13:19:53;6.80;99.90
23591;DHT22;11973;52.098;7.582;2022-12-07T13:24:58;6.90;99.90
23591;DHT22;11973;52.098;7.582;2022-12-07T13:27:26;6.90;99.90
23591;DHT22;11973;52.098;7.582;2022-12-07T13:29:54;6.90;99.90
23591;DHT22;11973;52.098;7.582;2022-12-07T13:32:26;6.90;99.90
23591;DHT22;11973;52.098;7.582;2022-12-07T13:34:53;6.80;99.90
23591;DHT22;11973;52.098;7.582;2022-12-07T13:37:29;6.70;99.90
23591;DHT22;11973;52.098;7.582;2022-12-07T13:39:59;6.70;99.90
23591;DHT22;11973;52.098;7.582;2022-12-07T13:42:33;6.60;99.90
23591;DHT22;11973;52.098;7.582;2022-12-07T13:45:00;6.60;99.90
23591;DHT22;11973;52.098;7.582;2022-12-07T13:47:43;6.50;99.90
23591;DHT22;11973;52.098;7.582;2022-12-07T13:50:41;6.40;99.90
23591;DHT22;11973;52.098;7.582;2022-12-07T13:53:12;6.30;99.90
23591;DHT22;11973;52.098;7.582;2022-12-07T13:55:45;6.30;99.90
23591;DHT22;11973;52.098;7.582;2022-12-07T13:58:11;6.20;99.90
23591;DHT22;11973;52.098;7.582;2022-12-07T14:00:37;6.20;99.90
23591;DHT22;11973;52.098;7.582;2022-12-07T14:05:39;6.10;99.90
23591;DHT22;11973;52.098;7.582;2022-12-07T14:13:34;6.00;99.90
23591;DHT22;11973;52.098;7.582;2022-12-07T14:16:01;6.00;99.90
23591;DHT22;11973;52.098;7.582;2022-12-07T14:18:37;6.00;99.90
23591;DHT22;11973;52.098;7.582;2022-12-07T14:23:30;5.90;99.90
23591;DHT22;11973;52.098;7.582;2022-12-07T14:26:16;5.80;99.90
23591;DHT22;11973;52.098;7.582;2022-12-07T14:28:44;5.80;99.90
23591;DHT22;11973;52.098;7.582;2022-12-07T14:31:18;5.80;99.90
23591;DHT22;11973;52.098;7.582;2022-12-07T14:33:45;5.70;99.90
23591;DHT22;11973;52.098;7.582;2022-12-07T14:36:12;5.70;99.90
23591;DHT22;11973;52.098;7.582;2022-12-07T14:38:38;5.70;99.90
23591;DHT22;11973;52.098;7.582;2022-12-07T14:41:10;5.70;99.90
23591;DHT22;11973;52.098;7.582;2022-12-07T14:43:56;5.70;99.90
23591;DHT22;11973;52.098;7.582;2022-12-07T14:46:22;5.60;99.90
23591;DHT22;11973;52.098;7.582;2022-12-07T14:48:47;5.60;99.90
23591;DHT22;11973;52.098;7.582;2022-12-07T14:51:13;5.60;99.90
23591;DHT22;11973;52.098;7.582;2022-12-07T14:53:42;5.50;99.90
23591;DHT22;11973;52.098;7.582;2022-12-07T14:56:09;5.50;99.90
23591;DHT22;11973;52.098;7.582;2022-12-07T14:58:35;5.50;99.90
23591;DHT22;11973;52.098;7.582;2022-12-07T15:01:01;5.50;99.90
23591;DHT22;11973;52.098;7.582;2022-12-07T15:03:26;5.40;99.90
23591;DHT22;11973;52.098;7.582;2022-12-07T15:05:52;5.40;99.90
23591;DHT22;11973;52.098;7.582;2022-12-07T15:08:18;5.30;99.90
23591;DHT22;11973;52.098;7.582;2022-12-07T15:10:44;5.20;99.90
23591;DHT22;11973;52.098;7.582;2022-12-07T15:13:10;5.20;99.90
23591;DHT22;11973;52.098;7.582;2022-12-07T15:15:54;5.20;99.90
23591;DHT22;11973;52.098;7.582;2022-12-07T15:18:21;5.10;99.90
23591;DHT22;11973;52.098;7.582;2022-12-07T15:20:47;5.10;99.90
23591;DHT22;11973;52.098;7.582;2022-12-07T15:23:13;5.00;99.90
23591;DHT22;11973;52.098;7.582;2022-12-07T15:25:47;5.00;99.90
23591;DHT22;11973;52.098;7.582;2022-12-07T15:28:14;4.90;99.90
23591;DHT22;11973;52.098;7.582;2022-12-07T15:30:44;4.90;99.90
23591;DHT22;11973;52.098;7.582;2022-12-07T15:33:11;4.80;99.90
23591;DHT22;11973;52.098;7.582;2022-12-07T15:35:44;4.90;99.90
23591;DHT22;11973;52.098;7.582;2022-12-07T15:38:10;4.80;99.90
23591;DHT22;11973;52.098;7.582;2022-12-07T15:40:36;4.80;99.90
23591;DHT22;11973;52.098;7.582;2022-12-07T15:43:02;4.70;99.90
23591;DHT22;11973;52.098;7.582;2022-12-07T15:45:29;4.70;99.90
23591;DHT22;11973;52.098;7.582;2022-12-07T15:47:54;4.70;99.90
23591;DHT22;11973;52.098;7.582;2022-12-07T15:50:21;4.60;99.90
23591;DHT22;11973;52.098;7.582;2022-12-07T15:52:48;4.60;99.90
23591;DHT22;11973;52.098;7.582;2022-12-07T15:55:13;4.60;99.90
23591;DHT22;11973;52.098;7.582;2022-12-07T15:57:39;4.50;99.90
23591;DHT22;11973;52.098;7.582;2022-12-07T16:00:08;4.50;99.90
23591;DHT22;11973;52.098;7.582;2022-12-07T16:02:36;4.50;99.90
23591;DHT22;11973;52.098;7.582;2022-12-07T16:05:02;4.40;99.90
23591;DHT22;11973;52.098;7.582;2022-12-07T16:07:27;4.40;99.90
23591;DHT22;11973;52.098;7.582;2022-12-07T16:09:53;4.40;99.90
23591;DHT22;11973;52.098;7.582;2022-12-07T16:12:19;4.40;99.90
23591;DHT22;11973;52.098;7.582;2022-12-07T16:14:44;4.40;99.90
23591;DHT22;11973;52.098;7.582;2022-12-07T16:17:10;4.40;99.90
23591;DHT22;11973;52.098;7.582;2022-12-07T16:19:37;4.40;99.90
23591;DHT22;11973;52.098;7.582;2022-12-07T16:22:03;4.40;99.90
23591;DHT22;11973;52.098;7.582;2022-12-07T16:24:30;4.40;99.90
23591;DHT22;11973;52.098;7.582;2022-12-07T16:26:55;4.40;99.90
23591;DHT22;11973;52.098;7.582;2022-12-07T16:29:22;4.40;99.90
23591;DHT22;11973;52.098;7.582;2022-12-07T16:31:48;4.40;99.90
23591;DHT22;11973;52.098;7.582;2022-12-07T16:34:14;4.30;99.90
23591;DHT22;11973;52.098;7.582;2022-12-07T16:36:40;4.30;99.90
23591;DHT22;11973;52.098;7.582;2022-12-07T16:39:06;4.30;99.90
23591;DHT22;11973;52.098;7.582;2022-12-07T16:41:32;4.30;99.90
23591;DHT22;11973;52.098;7.582;2022-12-07T16:44:03;4.20;99.90
23591;DHT22;11973;52.098;7.582;2022-12-07T16:46:31;4.20;99.90
23591;DHT22;11973;52.098;7.582;2022-12-07T16:48:56;4.20;99.90
23591;DHT22;11973;52.098;7.582;2022-12-07T16:51:22;4.20;99.90
23591;DHT22;11973;52.098;7.582;2022-12-07T16:53:48;4.20;99.90
23591;DHT22;11973;52.098;7.582;2022-12-07T16:56:15;4.20;99.90
23591;DHT22;11973;52.098;7.582;2022-12-07T16:58:42;4.20;99.90
23591;DHT22;11973;52.098;7.582;2022-12-07T17:01:10;4.20;99.90
23591;DHT22;11973;52.098;7.582;2022-12-07T17:03:35;4.20;99.90
23591;DHT22;11973;52.098;7.582;2022-12-07T17:06:01;4.20;99.90
23591;DHT22;11973;52.098;7.582;2022-12-07T17:08:27;4.20;99.90
23591;DHT22;11973;52.098;7.582;2022-12-07T17:10:52;4.30;99.90
23591;DHT22;11973;52.098;7.582;2022-12-07T17:13:18;4.30;99.90
23591;DHT22;11973;52.098;7.582;2022-12-07T17:16:05;4.30;99.90
23591;DHT22;11973;52.098;7.582;2022-12-07T17:18:33;4.30;99.90
23591;DHT22;11973;52.098;7.582;2022-12-07T17:21:07;4.30;99.90
23591;DHT22;11973;52.098;7.582;2022-12-07T17:23:35;4.30;99.90
23591;DHT22;11973;52.098;7.582;2022-12-07T17:26:10;4.30;99.90
23591;DHT22;11973;52.098;7.582;2022-12-07T17:28:36;4.30;99.90
23591;DHT22;11973;52.098;7.582;2022-12-07T17:31:07;4.30;99.90
23591;DHT22;11973;52.098;7.582;2022-12-07T17:33:34;4.30;99.90
23591;DHT22;11973;52.098;7.582;2022-12-07T17:36:01;4.30;99.90
23591;DHT22;11973;52.098;7.582;2022-12-07T17:38:28;4.30;99.90
23591;DHT22;11973;52.098;7.582;2022-12-07T17:40:54;4.30;99.90
23591;DHT22;11973;52.098;7.582;2022-12-07T17:43:19;4.30;99.90
23591;DHT22;11973;52.098;7.582;2022-12-07T17:45:45;4.30;99.90
23591;DHT22;11973;52.098;7.582;2022-12-07T17:48:11;4.40;99.90
23591;DHT22;11973;52.098;7.582;2022-12-07T17:50:39;4.40;99.90
23591;DHT22;11973;52.098;7.582;2022-12-07T17:53:39;4.40;99.90
23591;DHT22;11973;52.098;7.582;2022-12-07T17:56:05;4.40;99.90
23591;DHT22;11973;52.098;7.582;2022-12-07T17:58:31;4.50;99.90
23591;DHT22;11973;52.098;7.582;2022-12-07T18:00:57;4.50;99.90
23591;DHT22;11973;52.098;7.582;2022-12-07T18:03:22;4.50;99.90
23591;DHT22;11973;52.098;7.582;2022-12-07T18:05:48;4.50;99.90
23591;DHT22;11973;52.098;7.582;2022-12-07T18:08:14;4.50;99.90
23591;DHT22;11973;52.098;7.582;2022-12-07T18:10:39;4.50;99.90
23591;DHT22;11973;52.098;7.582;2022-12-07T18:13:05;4.50;99.90
23591;DHT22;11973;52.098;7.582;2022-12-07T18:15:56;4.50;99.90
23591;DHT22;11973;52.098;7.582;2022-12-07T18:18:22;4.50;99.90
23591;DHT22;11973;52.098;7.582;2022-12-07T18:20:47;4.60;99.90
23591;DHT22;11973;52.098;7.582;2022-12-07T18:23:13;4.60;99.90
23591;DHT22;11973;52.098;7.582;2022-12-07T18:25:39;4.60;99.90
23591;DHT22;11973;52.098;7.582;2022-12-07T18:28:05;4.60;99.90
23591;DHT22;11973;52.098;7.582;2022-12-07T18:30:30;4.60;99.90
23591;DHT22;11973;52.098;7.582;2022-12-07T18:32:56;4.60;99.90
23591;DHT22;11973;52.098;7.582;2022-12-07T18:35:22;4.60;99.90
23591;DHT22;11973;52.098;7.582;2022-12-07T18:37:48;4.60;99.90
23591;DHT22;11973;52.098;7.582;2022-12-07T18:40:13;4.60;99.90
23591;DHT22;11973;52.098;7.582;2022-12-07T18:42:39;4.60;99.90
23591;DHT22;11973;52.098;7.582;2022-12-07T18:45:05;4.50;99.90
23591;DHT22;11973;52.098;7.582;2022-12-07T18:47:31;4.50;99.90
23591;DHT22;11973;52.098;7.582;2022-12-07T18:49:57;4.50;99.90
23591;DHT22;11973;52.098;7.582;2022-12-07T18:52:23;4.50;99.90
23591;DHT22;11973;52.098;7.582;2022-12-07T18:54:48;4.50;99.90